createdAt,value
2019-03-25T00:00:46.665Z,7.70
2019-03-25T00:03:19.156Z,7.70
2019-03-25T00:05:50.138Z,7.80
2019-03-25T00:08:21.365Z,7.80
2019-03-25T00:10:52.399Z,7.80
2019-03-25T00:13:23.385Z,7.90
2019-03-25T00:15:56.415Z,7.80
2019-03-25T00:18:27.016Z,7.80
2019-03-25T00:20:57.954Z,7.80
2019-03-25T00:23:29.026Z,7.70
2019-03-25T00:26:00.202Z,7.70
2019-03-25T00:28:31.450Z,7.60
2019-03-25T00:31:02.506Z,7.50
2019-03-25T00:33:33.576Z,7.50
2019-03-25T00:36:04.525Z,7.50
2019-03-25T00:38:35.504Z,7.80
2019-03-25T00:41:06.448Z,7.80
2019-03-25T00:43:37.423Z,7.80
2019-03-25T00:46:08.374Z,7.90
2019-03-25T00:48:39.549Z,8.10
2019-03-25T00:51:10.569Z,8.50
2019-03-25T00:53:41.630Z,8.50
2019-03-25T00:56:12.571Z,8.40
2019-03-25T00:58:43.548Z,8.50
2019-03-25T01:01:14.561Z,8.40
2019-03-25T01:03:45.735Z,8.40
2019-03-25T01:06:16.725Z,8.40
2019-03-25T01:08:47.812Z,8.40
2019-03-25T01:11:18.759Z,8.30
2019-03-25T01:13:49.749Z,8.40
2019-03-25T01:16:20.694Z,8.70
2019-03-25T01:18:51.675Z,8.80
2019-03-25T01:21:22.619Z,8.80
2019-03-25T01:23:53.592Z,8.70
2019-03-25T01:26:24.535Z,8.50
2019-03-25T01:28:55.534Z,8.60
2019-03-25T01:31:26.543Z,8.40
2019-03-25T01:33:57.515Z,8.30
2019-03-25T01:36:28.485Z,8.50
2019-03-25T01:38:59.495Z,8.60
2019-03-25T01:41:30.439Z,8.70
2019-03-25T01:44:01.424Z,8.50
2019-03-25T01:46:32.364Z,8.50
2019-03-25T01:49:03.358Z,8.50
2019-03-25T01:51:34.365Z,8.50
2019-03-25T01:54:05.340Z,8.60
2019-03-25T01:56:36.467Z,8.70
2019-03-25T01:59:09.101Z,8.80
2019-03-25T02:01:40.046Z,8.70
2019-03-25T02:04:11.026Z,8.70
2019-03-25T02:06:41.992Z,8.60
2019-03-25T02:09:12.945Z,8.60
2019-03-25T02:11:43.936Z,8.70
2019-03-25T02:14:14.877Z,8.70
2019-03-25T02:16:45.875Z,8.60
2019-03-25T02:19:16.814Z,8.60
2019-03-25T02:21:47.798Z,8.60
2019-03-25T02:24:18.746Z,8.40
2019-03-25T02:26:49.731Z,8.50
2019-03-25T02:29:20.677Z,8.60
2019-03-25T02:31:51.578Z,8.60
2019-03-25T02:34:22.624Z,8.60
2019-03-25T02:36:53.634Z,8.50
2019-03-25T02:39:24.644Z,8.50
2019-03-25T02:41:55.640Z,8.60
2019-03-25T02:44:26.592Z,8.60
2019-03-25T02:46:57.681Z,8.50
2019-03-25T02:49:28.622Z,8.50
2019-03-25T02:51:59.602Z,8.40
2019-03-25T02:54:30.564Z,8.30
2019-03-25T02:57:01.536Z,8.30
2019-03-25T02:59:32.527Z,8.40
2019-03-25T03:02:03.520Z,8.20
2019-03-25T03:04:34.499Z,8.30
2019-03-25T03:07:05.459Z,8.50
2019-03-25T03:09:36.456Z,8.50
2019-03-25T03:12:07.418Z,8.50
2019-03-25T03:14:38.394Z,8.30
2019-03-25T03:17:09.347Z,8.30
2019-03-25T03:19:40.386Z,8.20
2019-03-25T03:22:11.344Z,8.30
2019-03-25T03:24:42.328Z,8.30
2019-03-25T03:27:13.289Z,8.40
2019-03-25T03:29:44.338Z,8.30
2019-03-25T03:32:15.278Z,8.20
2019-03-25T03:34:46.345Z,8.10
2019-03-25T03:37:17.356Z,8.10
2019-03-25T03:39:48.331Z,8.10
2019-03-25T03:42:19.285Z,8.10
2019-03-25T03:44:50.252Z,8.00
2019-03-25T03:47:21.199Z,7.90
2019-03-25T03:49:52.172Z,7.80
2019-03-25T03:52:23.117Z,7.80
2019-03-25T03:54:55.557Z,7.80
2019-03-25T03:57:26.761Z,7.80
2019-03-25T04:00:00.642Z,7.70
2019-03-25T04:02:31.660Z,7.50
2019-03-25T04:05:02.642Z,7.60
2019-03-25T04:07:33.597Z,7.60
2019-03-25T04:10:06.499Z,7.70
2019-03-25T04:12:37.510Z,7.60
2019-03-25T04:15:09.713Z,7.50
2019-03-25T04:17:40.751Z,7.50
2019-03-25T04:20:11.727Z,7.50
2019-03-25T04:22:42.734Z,7.40
2019-03-25T04:25:13.706Z,7.40
2019-03-25T04:27:44.655Z,7.50
2019-03-25T04:30:15.854Z,7.40
2019-03-25T04:32:46.769Z,7.40
2019-03-25T04:35:17.813Z,7.40
2019-03-25T04:37:48.748Z,7.40
2019-03-25T04:40:19.747Z,7.40
2019-03-25T04:42:50.854Z,7.50
2019-03-25T04:45:21.838Z,7.50
2019-03-25T04:47:52.785Z,7.40
2019-03-25T04:50:23.764Z,7.40
2019-03-25T04:52:54.699Z,7.40
2019-03-25T04:55:26.125Z,7.40
2019-03-25T04:57:57.098Z,7.40
2019-03-25T05:00:35.996Z,7.30
2019-03-25T05:03:07.278Z,7.20
2019-03-25T05:05:38.261Z,7.20
2019-03-25T05:08:09.229Z,7.20
2019-03-25T05:10:40.168Z,7.20
2019-03-25T05:13:11.149Z,7.10
2019-03-25T05:15:42.251Z,6.90
2019-03-25T05:18:13.201Z,6.90
2019-03-25T05:20:44.170Z,6.90
2019-03-25T05:23:15.375Z,6.80
2019-03-25T05:25:46.346Z,6.80
2019-03-25T05:28:17.322Z,6.90
2019-03-25T05:30:48.260Z,6.80
2019-03-25T05:33:19.235Z,6.80
2019-03-25T05:35:50.202Z,6.80
2019-03-25T05:38:21.227Z,6.70
2019-03-25T05:40:52.197Z,6.60
2019-03-25T05:43:23.175Z,6.60
2019-03-25T05:45:54.149Z,6.60
2019-03-25T05:48:25.129Z,6.70
2019-03-25T05:50:56.069Z,6.70
2019-03-25T05:53:27.044Z,6.70
2019-03-25T05:55:58.021Z,6.70
2019-03-25T05:58:28.964Z,6.60
2019-03-25T06:00:59.937Z,6.70
2019-03-25T06:03:30.947Z,6.70
2019-03-25T06:06:01.941Z,6.70
2019-03-25T06:08:32.912Z,6.80
2019-03-25T06:11:03.854Z,6.80
2019-03-25T06:13:34.841Z,6.80
2019-03-25T06:16:05.982Z,6.80
2019-03-25T06:18:36.953Z,6.90
2019-03-25T06:21:07.895Z,6.80
2019-03-25T06:23:38.865Z,6.80
2019-03-25T06:26:09.806Z,6.80
2019-03-25T06:28:40.929Z,6.80
2019-03-25T06:31:11.868Z,6.80
2019-03-25T06:33:42.831Z,6.80
2019-03-25T06:36:13.767Z,6.90
2019-03-25T06:38:44.832Z,7.00
2019-03-25T06:41:15.773Z,7.20
2019-03-25T06:43:46.758Z,7.30
2019-03-25T06:46:17.699Z,7.30
2019-03-25T06:48:48.668Z,7.30
2019-03-25T06:51:19.610Z,7.30
2019-03-25T06:53:50.658Z,7.20
2019-03-25T06:56:21.631Z,7.20
2019-03-25T06:58:52.575Z,7.30
2019-03-25T07:01:23.543Z,7.40
2019-03-25T07:03:54.483Z,7.20
2019-03-25T07:06:25.461Z,7.10
2019-03-25T07:08:57.861Z,7.20
2019-03-25T07:11:28.851Z,7.20
2019-03-25T07:13:59.918Z,7.30
2019-03-25T07:16:30.893Z,7.30
2019-03-25T07:19:01.842Z,7.20
2019-03-25T07:21:32.810Z,7.00
2019-03-25T07:24:03.742Z,6.80
2019-03-25T07:26:34.720Z,6.80
2019-03-25T07:29:05.670Z,6.80
2019-03-25T07:31:36.645Z,6.70
2019-03-25T07:34:07.572Z,6.70
2019-03-25T07:36:38.545Z,6.70
2019-03-25T07:39:10.791Z,6.60
2019-03-25T07:41:41.760Z,6.70
2019-03-25T07:44:12.701Z,6.90
2019-03-25T07:46:43.671Z,6.90
2019-03-25T07:49:14.655Z,7.00
2019-03-25T07:51:46.632Z,7.20
2019-03-25T07:54:17.606Z,7.20
2019-03-25T07:56:48.573Z,7.20
2019-03-25T07:59:20.247Z,7.40
2019-03-25T08:01:51.425Z,7.40
2019-03-25T08:04:22.472Z,7.30
2019-03-25T08:06:53.503Z,7.20
2019-03-25T08:09:24.492Z,7.00
2019-03-25T08:11:55.523Z,6.90
2019-03-25T08:14:26.587Z,7.10
2019-03-25T08:16:57.869Z,7.50
2019-03-25T08:19:28.902Z,7.70
2019-03-25T08:21:59.839Z,7.80
2019-03-25T08:24:30.838Z,7.80
2019-03-25T08:27:01.905Z,7.80
2019-03-25T08:29:32.872Z,8.00
2019-03-25T08:32:03.821Z,7.90
2019-03-25T08:34:34.810Z,7.80
2019-03-25T08:37:05.747Z,7.70
2019-03-25T08:39:36.711Z,7.60
2019-03-25T08:42:07.674Z,7.50
2019-03-25T08:44:38.649Z,7.50
2019-03-25T08:47:09.626Z,7.60
2019-03-25T08:49:40.552Z,7.90
2019-03-25T08:52:11.523Z,8.30
2019-03-25T08:54:42.486Z,8.50
2019-03-25T08:57:13.450Z,8.50
2019-03-25T08:59:44.390Z,8.40
2019-03-25T09:02:15.358Z,8.40
2019-03-25T09:04:47.298Z,8.40
2019-03-25T09:07:18.268Z,8.60
2019-03-25T09:09:49.205Z,8.60
2019-03-25T09:12:20.176Z,8.60
2019-03-25T09:14:51.109Z,8.50
2019-03-25T09:17:22.288Z,8.60
2019-03-25T09:19:53.236Z,8.60
2019-03-25T09:22:24.205Z,8.60
2019-03-25T09:24:55.138Z,8.80
2019-03-25T09:27:26.221Z,8.90
2019-03-25T09:29:57.291Z,9.00
2019-03-25T09:32:28.296Z,9.30
2019-03-25T09:34:59.507Z,9.50
2019-03-25T09:37:30.448Z,9.60
2019-03-25T09:40:01.422Z,9.60
2019-03-25T09:42:32.358Z,9.30
2019-03-25T09:45:03.446Z,8.90
2019-03-25T09:47:34.488Z,8.60
2019-03-25T09:50:07.584Z,8.40
2019-03-25T09:52:39.055Z,8.60
2019-03-25T09:55:11.571Z,8.70
2019-03-25T09:57:42.518Z,8.80
2019-03-25T10:00:14.175Z,8.80
2019-03-25T10:02:45.112Z,9.00
2019-03-25T10:05:16.373Z,8.90
2019-03-25T10:07:47.320Z,8.70
2019-03-25T10:10:18.297Z,8.60
2019-03-25T10:12:49.238Z,8.70
2019-03-25T10:15:20.316Z,9.10
2019-03-25T10:17:51.682Z,9.90
2019-03-25T10:20:22.646Z,9.90
2019-03-25T10:22:53.667Z,9.60
2019-03-25T10:25:24.602Z,9.90
2019-03-25T10:27:56.673Z,10.20
2019-03-25T10:30:27.615Z,10.00
2019-03-25T10:32:58.589Z,10.60
2019-03-25T10:35:29.557Z,10.40
2019-03-25T10:38:00.610Z,10.40
2019-03-25T10:40:31.550Z,11.20
2019-03-25T10:43:02.524Z,10.20
2019-03-25T10:45:33.460Z,9.40
2019-03-25T10:48:04.421Z,9.10
2019-03-25T10:50:35.409Z,10.60
2019-03-25T10:53:06.427Z,12.30
2019-03-25T10:55:37.922Z,12.30
2019-03-25T10:58:09.103Z,11.20
2019-03-25T11:00:40.147Z,10.70
2019-03-25T11:03:12.680Z,11.30
2019-03-25T11:05:43.624Z,11.90
2019-03-25T11:08:14.602Z,12.40
2019-03-25T11:10:46.550Z,12.50
2019-03-25T11:13:17.526Z,13.30
2019-03-25T11:15:48.513Z,13.90
2019-03-25T11:18:19.593Z,14.40
2019-03-25T11:20:50.537Z,14.60
2019-03-25T11:23:21.514Z,14.20
2019-03-25T11:25:52.449Z,13.70
2019-03-25T11:28:23.442Z,13.50
2019-03-25T11:30:58.992Z,12.90
2019-03-25T11:33:30.056Z,13.30
2019-03-25T11:36:02.785Z,13.80
2019-03-25T11:38:33.958Z,13.70
2019-03-25T11:41:04.902Z,13.50
2019-03-25T11:43:35.928Z,12.80
2019-03-25T11:46:06.882Z,12.10
2019-03-25T11:48:37.863Z,12.70
2019-03-25T11:51:08.810Z,12.50
2019-03-25T11:53:39.783Z,12.40
2019-03-25T11:56:10.751Z,13.40
2019-03-25T11:58:41.693Z,13.40
2019-03-25T12:01:12.763Z,12.00
2019-03-25T12:03:43.707Z,11.30
2019-03-25T12:06:14.672Z,10.70
2019-03-25T12:08:45.611Z,10.50
2019-03-25T12:11:16.579Z,10.30
2019-03-25T12:13:47.521Z,10.10
2019-03-25T12:16:18.493Z,11.40
2019-03-25T12:18:49.438Z,12.90
2019-03-25T12:21:20.506Z,12.10
2019-03-25T12:23:51.447Z,11.80
2019-03-25T12:26:22.501Z,10.90
2019-03-25T12:28:53.573Z,9.90
2019-03-25T12:31:24.736Z,9.30
2019-03-25T12:33:55.674Z,9.10
2019-03-25T12:36:26.637Z,9.30
2019-03-25T12:38:59.156Z,9.70
2019-03-25T12:41:30.134Z,10.30
2019-03-25T12:44:01.072Z,10.20
2019-03-25T12:46:32.135Z,12.00
2019-03-25T12:49:03.084Z,13.80
2019-03-25T12:51:34.052Z,15.30
2019-03-25T12:54:05.016Z,15.20
2019-03-25T12:56:35.998Z,13.60
2019-03-25T12:59:06.945Z,13.20
2019-03-25T13:01:37.929Z,12.90
2019-03-25T13:04:08.887Z,13.80
2019-03-25T13:06:39.858Z,14.10
2019-03-25T13:09:10.799Z,13.00
2019-03-25T13:11:41.768Z,11.90
2019-03-25T13:14:12.706Z,10.80
2019-03-25T13:16:43.724Z,10.10
2019-03-25T13:19:14.714Z,9.90
2019-03-25T13:21:45.652Z,9.70
2019-03-25T13:24:16.619Z,9.50
2019-03-25T13:26:47.551Z,9.20
2019-03-25T13:29:18.512Z,8.90
2019-03-25T13:31:49.444Z,8.70
2019-03-25T13:34:20.416Z,8.70
2019-03-25T13:36:51.373Z,8.60
2019-03-25T13:39:22.341Z,8.40
2019-03-25T13:41:53.273Z,8.20
2019-03-25T13:44:24.235Z,7.90
2019-03-25T13:46:55.165Z,7.40
2019-03-25T13:49:26.198Z,7.00
2019-03-25T13:51:57.189Z,6.90
2019-03-25T13:54:28.165Z,6.90
2019-03-25T13:56:59.119Z,6.80
2019-03-25T13:59:30.073Z,7.60
2019-03-25T14:02:01.005Z,8.70
2019-03-25T14:04:31.972Z,10.70
2019-03-25T14:07:03.989Z,11.20
2019-03-25T14:09:36.084Z,11.50
2019-03-25T14:12:07.052Z,11.00
2019-03-25T14:14:38.021Z,11.60
2019-03-25T14:17:09.463Z,11.20
2019-03-25T14:19:40.513Z,11.10
2019-03-25T14:22:11.446Z,10.80
2019-03-25T14:24:42.491Z,10.00
2019-03-25T14:27:13.420Z,9.30
2019-03-25T14:29:44.391Z,8.60
2019-03-25T14:32:15.318Z,8.00
2019-03-25T14:34:46.284Z,7.50
2019-03-25T14:37:17.225Z,7.20
2019-03-25T14:39:48.179Z,7.00
2019-03-25T14:42:19.121Z,6.90
2019-03-25T14:44:50.198Z,7.60
2019-03-25T14:47:21.129Z,8.10
2019-03-25T14:49:52.097Z,9.50
2019-03-25T14:52:23.114Z,10.20
2019-03-25T14:54:54.073Z,9.50
2019-03-25T14:57:25.004Z,8.30
2019-03-25T14:59:55.961Z,7.40
2019-03-25T15:02:26.895Z,6.60
2019-03-25T15:04:58.198Z,5.90
2019-03-25T15:07:29.159Z,4.90
2019-03-25T15:10:00.294Z,3.80
2019-03-25T15:12:31.194Z,3.20
2019-03-25T15:15:02.158Z,3.00
2019-03-25T15:17:33.092Z,2.90
2019-03-25T15:20:05.917Z,2.90
2019-03-25T15:22:37.124Z,2.80
2019-03-25T15:25:11.027Z,2.90
2019-03-25T15:27:41.949Z,3.00
2019-03-25T15:30:13.602Z,3.10
2019-03-25T15:32:44.544Z,3.30
2019-03-25T15:35:15.704Z,3.60
2019-03-25T15:37:46.639Z,4.80
2019-03-25T15:40:18.415Z,6.50
2019-03-25T15:42:49.515Z,7.00
2019-03-25T15:45:20.477Z,7.20
2019-03-25T15:47:51.408Z,7.60
2019-03-25T15:50:22.369Z,8.00
2019-03-25T15:52:53.300Z,8.50
2019-03-25T15:55:24.233Z,8.50
2019-03-25T15:57:55.274Z,8.90
2019-03-25T16:00:26.282Z,9.30
2019-03-25T16:02:57.236Z,9.70
2019-03-25T16:05:28.169Z,9.50
2019-03-25T16:07:59.151Z,9.80
2019-03-25T16:10:30.086Z,9.10
2019-03-25T16:13:01.072Z,8.00
2019-03-25T16:15:41.512Z,7.00
2019-03-25T16:18:19.774Z,6.40
2019-03-25T16:20:50.712Z,5.90
2019-03-25T16:23:21.691Z,5.50
2019-03-25T16:25:52.621Z,5.10
2019-03-25T16:28:23.592Z,5.00
2019-03-25T16:30:58.946Z,4.90
2019-03-25T16:33:27.188Z,4.90
2019-03-25T16:35:58.118Z,4.90
2019-03-25T16:38:29.095Z,4.90
2019-03-25T16:41:01.114Z,4.80
2019-03-25T16:43:32.128Z,4.20
2019-03-25T16:46:03.057Z,3.30
2019-03-25T16:48:34.017Z,2.70
2019-03-25T16:51:04.948Z,2.30
2019-03-25T16:53:35.911Z,2.10
2019-03-25T16:56:06.857Z,2.10
2019-03-25T16:58:37.859Z,2.10
2019-03-25T17:01:10.579Z,2.10
2019-03-25T17:03:41.652Z,2.10
2019-03-25T17:06:12.764Z,2.10
2019-03-25T17:08:43.724Z,2.00
2019-03-25T17:11:14.715Z,2.00
2019-03-25T17:13:45.733Z,2.10
2019-03-25T17:16:16.769Z,2.10
2019-03-25T17:18:47.805Z,2.20
2019-03-25T17:21:18.745Z,2.30
2019-03-25T17:23:49.701Z,2.30
2019-03-25T17:26:20.627Z,2.40
2019-03-25T17:28:51.660Z,2.40
2019-03-25T17:31:22.584Z,2.40
2019-03-25T17:33:53.545Z,2.30
2019-03-25T17:36:24.501Z,2.20
2019-03-25T17:38:55.469Z,2.20
2019-03-25T17:41:26.402Z,2.10
2019-03-25T17:43:57.373Z,2.00
2019-03-25T17:46:28.345Z,2.00
2019-03-25T17:48:59.364Z,2.10
2019-03-25T17:51:30.330Z,2.10
2019-03-25T17:54:01.260Z,2.10
2019-03-25T17:56:32.325Z,2.10
2019-03-25T17:59:03.254Z,2.00
2019-03-25T18:01:34.416Z,1.90
2019-03-25T18:04:05.841Z,2.00
2019-03-25T18:06:36.870Z,2.00
2019-03-25T18:09:08.831Z,2.20
2019-03-25T18:11:39.797Z,2.20
2019-03-25T18:14:10.737Z,2.30
2019-03-25T18:16:41.699Z,2.40
2019-03-25T18:19:13.641Z,2.40
2019-03-25T18:21:44.598Z,2.40
2019-03-25T18:24:15.529Z,2.30
2019-03-25T18:26:46.500Z,2.30
2019-03-25T18:29:17.441Z,2.20
2019-03-25T18:31:48.405Z,2.20
2019-03-25T18:34:19.337Z,2.10
2019-03-25T18:36:50.304Z,2.20
2019-03-25T18:39:21.266Z,2.30
2019-03-25T18:41:52.226Z,2.40
2019-03-25T18:44:23.188Z,2.50
2019-03-25T18:46:54.121Z,2.50
2019-03-25T18:49:25.153Z,2.40
2019-03-25T18:51:56.089Z,2.20
2019-03-25T18:54:27.069Z,1.80
2019-03-25T18:56:58.063Z,1.30
2019-03-25T18:59:29.048Z,1.10
2019-03-25T19:01:59.981Z,1.10
2019-03-25T19:04:30.938Z,1.10
2019-03-25T19:07:02.519Z,1.20
2019-03-25T19:09:33.523Z,1.20
2019-03-25T19:12:04.473Z,1.20
2019-03-25T19:14:35.430Z,1.30
2019-03-25T19:17:06.369Z,1.30
2019-03-25T19:19:37.338Z,1.30
2019-03-25T19:22:08.288Z,1.30
2019-03-25T19:24:39.265Z,1.40
2019-03-25T19:27:10.198Z,1.40
2019-03-25T19:29:41.165Z,1.50
2019-03-25T19:32:12.109Z,1.60
2019-03-25T19:34:43.081Z,1.50
2019-03-25T19:37:14.055Z,1.70
2019-03-25T19:39:45.112Z,1.80
2019-03-25T19:42:16.114Z,1.80
2019-03-25T19:44:47.119Z,1.80
2019-03-25T19:47:18.153Z,1.80
2019-03-25T19:49:49.240Z,1.70
2019-03-25T19:52:20.248Z,1.50
2019-03-25T19:54:51.227Z,1.40
2019-03-25T19:57:22.235Z,1.40
2019-03-25T19:59:53.213Z,1.40
2019-03-25T20:02:24.334Z,1.50
2019-03-25T20:04:55.452Z,1.50
2019-03-25T20:07:26.473Z,1.60
2019-03-25T20:09:57.534Z,1.70
2019-03-25T20:12:28.648Z,1.80
2019-03-25T20:14:59.885Z,1.80
2019-03-25T20:17:30.963Z,1.80
2019-03-25T20:20:02.020Z,1.80
2019-03-25T20:22:33.067Z,1.80
2019-03-25T20:25:05.588Z,1.80
2019-03-25T20:27:36.568Z,1.80
2019-03-25T20:30:12.221Z,1.80
2019-03-25T20:32:43.296Z,1.90
2019-03-25T20:35:14.419Z,1.80
2019-03-25T20:37:45.369Z,1.80
2019-03-25T20:40:16.639Z,1.90
2019-03-25T20:42:47.571Z,1.80
2019-03-25T20:45:18.840Z,1.80
2019-03-25T20:47:49.765Z,1.90
2019-03-25T20:50:20.723Z,1.80
2019-03-25T20:52:51.760Z,1.70
2019-03-25T20:55:22.801Z,1.70
2019-03-25T20:57:53.856Z,1.60
2019-03-25T21:00:54.767Z,1.60
2019-03-25T21:03:25.699Z,1.50
2019-03-25T21:05:56.734Z,1.40
2019-03-25T21:08:27.761Z,1.20
2019-03-25T21:10:58.887Z,1.30
2019-03-25T21:13:29.841Z,1.30
2019-03-25T21:16:00.974Z,1.30
2019-03-25T21:18:32.606Z,1.30
2019-03-25T21:21:03.652Z,1.30
2019-03-25T21:23:34.769Z,1.40
2019-03-25T21:26:05.868Z,1.50
2019-03-25T21:28:36.956Z,1.60
2019-03-25T21:31:08.003Z,1.70
2019-03-25T21:33:38.994Z,1.70
2019-03-25T21:36:10.020Z,1.80
2019-03-25T21:38:41.081Z,1.80
2019-03-25T21:41:12.424Z,1.80
2019-03-25T21:43:43.338Z,1.90
2019-03-25T21:46:14.323Z,1.80
2019-03-25T21:48:45.265Z,1.90
2019-03-25T21:51:16.288Z,1.90
2019-03-25T21:53:47.326Z,2.00
2019-03-25T21:56:18.387Z,1.90
2019-03-25T21:58:49.477Z,1.90
2019-03-25T22:01:20.585Z,2.00
2019-03-25T22:03:51.632Z,2.00
2019-03-25T22:06:22.680Z,2.00
2019-03-25T22:08:53.610Z,2.00
2019-03-25T22:11:24.586Z,2.00
2019-03-25T22:13:55.587Z,2.10
2019-03-25T22:16:26.539Z,2.10
2019-03-25T22:18:57.509Z,2.00
2019-03-25T22:21:28.445Z,1.90
2019-03-25T22:23:59.424Z,1.90
2019-03-25T22:26:30.357Z,1.90
2019-03-25T22:29:04.007Z,1.90
2019-03-25T22:31:34.947Z,1.90
2019-03-25T22:34:05.931Z,1.90
2019-03-25T22:36:36.943Z,1.80
2019-03-25T22:39:08.108Z,1.80
2019-03-25T22:41:39.047Z,1.80
2019-03-25T22:44:10.015Z,1.80
2019-03-25T22:46:40.966Z,1.70
2019-03-25T22:49:11.946Z,1.60
2019-03-25T22:51:42.884Z,1.60
2019-03-25T22:54:13.946Z,1.70
2019-03-25T22:56:44.885Z,1.60
2019-03-25T22:59:15.862Z,1.70
2019-03-25T23:01:46.797Z,1.80
2019-03-25T23:04:17.766Z,1.90
2019-03-25T23:06:48.699Z,1.90
2019-03-25T23:09:19.673Z,1.90
2019-03-25T23:11:50.600Z,1.90
2019-03-25T23:14:21.564Z,1.90
2019-03-25T23:16:52.530Z,1.90
2019-03-25T23:19:23.503Z,1.80
2019-03-25T23:21:54.437Z,1.70
2019-03-25T23:24:25.396Z,1.70
2019-03-25T23:26:56.335Z,1.70
2019-03-25T23:29:27.298Z,1.70
2019-03-25T23:31:58.233Z,1.70
2019-03-25T23:34:29.206Z,1.60
2019-03-25T23:37:00.265Z,1.70
2019-03-25T23:39:31.238Z,1.70
2019-03-25T23:42:02.271Z,1.90
2019-03-25T23:44:33.234Z,1.80
2019-03-25T23:47:04.173Z,1.70
2019-03-25T23:49:35.243Z,2.00
2019-03-25T23:52:06.484Z,2.10
2019-03-25T23:54:37.459Z,2.10
2019-03-25T23:57:08.391Z,2.20
2019-03-25T23:59:41.034Z,2.20
